ENFL

Florø Airport

Florø, Norway
TAF ENFL 230500Z 2306/2315 12012KT 9999 FEW020 BKN050
Issued Valid From Valid To
Jan-23 @ 05:00 UTC
(2 hours ago)
Jan-23 @ 06:00 UTC
(an hour ago)
Jan-23 @ 15:00 UTC
(in 8 hours)
Jan-23 @ 06:00 to Jan-23 @ 15:00
TAF ENFL 230500Z 2306/2315 12012KT 9999 FEW020 BKN050
Wind Visibility Clouds
120° at 12 knots 10,000+ meters
  • Few at 2,000' AGL
  • Broken at 5,000' AGL
TAF ENFL 230500Z 2306/2315 12012KT 9999 FEW020 BKN050
Issued Jan-23 @ 05:00 UTC
(2 hours ago)
Valid From Jan-23 @ 06:00 UTC
(an hour ago)
Valid To Jan-23 @ 15:00 UTC
(in 8 hours)
Jan-23 @ 06:00 - Jan-23 @ 15:00
Wind Visibility
120° at 12 knots 10,000+ meters
Clouds
  • Few at 2,000' AGL
  • Broken at 5,000' AGL